Time;durP1;ratioP1;P1;durP2;ratioP2;P2;SDS_P1;SDS_P2;PMS_P1;PMS_P2;Temp;Humidity;BMP_temperature;BMP_pressure;BME280_temperature;BME280_humidity;BME280_pressure;Samples;Min_cycle;Max_cycle;Signal;HPM_P1;HPM_P2
2023/09/20 00:04:47;;;;;;;2.90;1.65;;;;;;;-147.65;100.00;57646.63;10446214;28;20080;-79
2023/09/20 00:09:48;;;;;;;4.35;1.70;;;;;;;-147.65;100.00;57646.63;10447652;28;20037;-79
2023/09/20 00:14:48;;;;;;;8.20;1.60;;;;;;;-147.65;100.00;57646.63;10413689;28;20067;-79
2023/09/20 00:19:49;;;;;;;9.95;2.20;;;;;;;-147.65;100.00;57646.63;10481462;28;20039;-76
2023/09/20 00:24:51;;;;;;;4.38;2.53;;;;;;;-147.65;100.00;57646.63;10487429;28;20036;-76
2023/09/20 00:29:51;;;;;;;8.95;2.17;;;;;;;-147.65;100.00;57646.63;10421085;28;20034;-76
2023/09/20 00:34:52;;;;;;;4.90;2.10;;;;;;;-147.65;100.00;57646.63;10379896;28;20044;-78
2023/09/20 00:39:54;;;;;;;3.45;2.13;;;;;;;-147.65;100.00;57646.63;10479488;28;20036;-78
2023/09/20 00:44:54;;;;;;;5.72;1.98;;;;;;;-147.65;100.00;57646.63;10437904;28;20038;-78
2023/09/20 00:49:55;;;;;;;5.95;2.78;;;;;;;-147.65;100.00;57646.63;10438334;28;20033;-78
2023/09/20 00:54:56;;;;;;;5.15;2.20;;;;;;;-147.65;100.00;57646.63;10443823;28;20036;-78
2023/09/20 00:59:58;;;;;;;3.53;2.10;;;;;;;-147.65;100.00;57646.63;10479076;28;20050;-79
2023/09/20 01:04:58;;;;;;;4.57;1.60;;;;;;;-147.65;100.00;57646.63;10433753;28;20051;-78
2023/09/20 01:09:59;;;;;;;5.68;1.90;;;;;;;-147.65;100.00;57646.63;10414059;28;20092;-77
2023/09/20 01:14:59;;;;;;;11.05;2.17;;;;;;;-147.65;100.00;57646.63;10438351;28;20563;-76
2023/09/20 01:20:07;;;;;;;4.63;1.58;;;;;;;-147.65;100.00;57646.63;10425594;28;20051;-77
2023/09/20 01:25:24;;;;;;;7.15;2.78;;;;;;;-147.65;100.00;57646.63;10416699;28;20041;-77
2023/09/20 01:30:26;;;;;;;4.35;2.40;;;;;;;-147.65;100.00;57646.63;10444811;28;20051;-76
2023/09/20 01:35:29;;;;;;;13.75;3.25;;;;;;;-147.65;100.00;57646.63;10403978;28;20455;-76
2023/09/20 01:40:33;;;;;;;7.78;1.60;;;;;;;-147.65;100.00;57646.63;10492428;28;20108;-77
2023/09/20 01:45:36;;;;;;;9.40;3.03;;;;;;;-147.65;100.00;57646.63;10451932;28;20082;-77
2023/09/20 01:50:37;;;;;;;10.13;3.80;;;;;;;-147.65;100.00;57646.63;10443076;28;20033;-77
2023/09/20 01:55:37;;;;;;;5.93;2.67;;;;;;;-147.65;100.00;57646.63;10473351;28;20066;-77
2023/09/20 02:00:39;;;;;;;6.30;2.83;;;;;;;-147.65;100.00;57646.63;10481042;28;20048;-77
2023/09/20 02:05:40;;;;;;;8.27;2.60;;;;;;;-147.65;100.00;57646.63;10483112;28;20479;-78
2023/09/20 02:10:41;;;;;;;9.95;3.35;;;;;;;-147.65;100.00;57646.63;10436110;28;20041;-78
2023/09/20 02:15:42;;;;;;;14.98;2.97;;;;;;;-147.65;100.00;57646.63;10453153;28;20046;-76
2023/09/20 02:20:43;;;;;;;4.50;2.00;;;;;;;-147.65;100.00;57646.63;10439427;28;20396;-78
2023/09/20 02:25:45;;;;;;;7.43;2.43;;;;;;;-147.65;100.00;57646.63;10440162;28;20037;-77
2023/09/20 02:30:45;;;;;;;18.00;3.80;;;;;;;-147.65;100.00;57646.63;10443782;28;20045;-77
2023/09/20 02:35:46;;;;;;;5.60;2.50;;;;;;;-147.65;100.00;57646.63;10441280;28;20533;-77
2023/09/20 02:40:46;;;;;;;7.20;3.03;;;;;;;-147.65;100.00;57646.63;10471958;28;20124;-77
2023/09/20 02:45:47;;;;;;;5.63;2.95;;;;;;;-147.65;100.00;57646.63;10415392;28;20121;-77
2023/09/20 02:50:47;;;;;;;6.68;2.63;;;;;;;-147.65;100.00;57646.63;10426891;28;20037;-77
2023/09/20 02:55:48;;;;;;;12.50;2.60;;;;;;;-147.65;100.00;57646.63;10399288;28;20112;-78
2023/09/20 03:00:50;;;;;;;5.72;2.42;;;;;;;-147.65;100.00;57646.63;10465641;28;20034;-77
2023/09/20 03:05:51;;;;;;;;;;;;;;;-147.65;100.00;57646.63;10433003;28;20103;-77
2023/09/20 03:10:53;;;;;;;6.35;1.92;;;;;;;-147.65;100.00;57646.63;10454963;28;19970;-77
2023/09/20 03:15:54;;;;;;;4.53;2.13;;;;;;;-147.65;100.00;57646.63;10454530;28;20041;-78
2023/09/20 03:20:55;;;;;;;5.80;1.57;;;;;;;-147.65;100.00;57646.63;10437099;28;20037;-77
2023/09/20 03:25:56;;;;;;;6.93;2.97;;;;;;;-147.65;100.00;57646.63;10432781;28;20036;-77
2023/09/20 03:30:58;;;;;;;5.68;2.28;;;;;;;-147.65;100.00;57646.63;10429728;28;20064;-78
2023/09/20 03:36:04;;;;;;;6.75;2.40;;;;;;;-147.65;100.00;57646.63;10447251;28;20037;-77
2023/09/20 03:41:06;;;;;;;11.15;3.35;;;;;;;-147.65;100.00;57646.63;10454829;28;20473;-77
2023/09/20 03:46:06;;;;;;;6.65;2.53;;;;;;;-147.65;100.00;57646.63;10422757;28;20116;-77
2023/09/20 03:51:17;;;;;;;7.15;2.47;;;;;;;-147.65;100.00;57646.63;10419347;28;20033;-76
2023/09/20 03:56:19;;;;;;;5.63;3.42;;;;;;;-147.65;100.00;57646.63;10437214;28;20048;-77
2023/09/20 04:01:20;;;;;;;7.60;3.33;;;;;;;-147.65;100.00;57646.63;10435082;28;20037;-76
2023/09/20 04:06:23;;;;;;;13.02;2.97;;;;;;;-147.65;100.00;57646.63;10459580;28;20495;-77
2023/09/20 04:11:23;;;;;;;5.72;2.25;;;;;;;-147.65;100.00;57646.63;10440840;28;20430;-76
2023/09/20 04:16:25;;;;;;;5.72;2.30;;;;;;;-147.65;100.00;57646.63;10447650;28;20041;-77
2023/09/20 04:21:25;;;;;;;7.03;2.75;;;;;;;-147.65;100.00;57646.63;10447981;28;20045;-77
2023/09/20 04:26:26;;;;;;;4.00;1.80;;;;;;;-147.65;100.00;57646.63;10429177;28;20041;-77
2023/09/20 04:31:27;;;;;;;7.03;1.88;;;;;;;-147.65;100.00;57646.63;10456755;28;20449;-80
2023/09/20 04:36:28;;;;;;;5.27;2.20;;;;;;;-147.65;100.00;57646.63;10446225;28;20040;-76
2023/09/20 04:41:28;;;;;;;5.25;2.00;;;;;;;-147.65;100.00;57646.63;10445825;28;20044;-77
2023/09/20 04:46:29;;;;;;;6.93;2.47;;;;;;;-147.65;100.00;57646.63;10422181;28;20380;-80
2023/09/20 04:51:30;;;;;;;7.85;4.05;;;;;;;-147.65;100.00;57646.63;10437403;28;20057;-81
2023/09/20 04:56:31;;;;;;;8.40;2.90;;;;;;;-147.65;100.00;57646.63;10440843;28;20166;-79
2023/09/20 05:01:32;;;;;;;6.78;1.90;;;;;;;-147.65;100.00;57646.63;10435716;28;20056;-79
2023/09/20 05:06:33;;;;;;;6.33;2.30;;;;;;;-147.65;100.00;57646.63;10428337;28;20041;-79
2023/09/20 05:11:33;;;;;;;7.95;2.63;;;;;;;-147.65;100.00;57646.63;10421873;28;20040;-80
2023/09/20 05:16:34;;;;;;;4.50;2.20;;;;;;;-147.65;100.00;57646.63;10444743;28;20045;-78
2023/09/20 05:21:35;;;;;;;6.38;2.58;;;;;;;-147.65;100.00;57646.63;10485810;28;20123;-77
2023/09/20 05:26:36;;;;;;;6.97;3.13;;;;;;;-147.65;100.00;57646.63;10441033;28;20556;-80
2023/09/20 05:31:37;;;;;;;4.72;2.03;;;;;;;-147.65;100.00;57646.63;10425091;28;20041;-77
2023/09/20 05:36:37;;;;;;;6.72;1.98;;;;;;;-147.65;100.00;57646.63;10404788;28;20033;-78
2023/09/20 05:41:39;;;;;;;5.38;2.92;;;;;;;-147.65;100.00;57646.63;10483215;28;20037;-79
2023/09/20 05:46:40;;;;;;;4.82;2.65;;;;;;;-147.65;100.00;57646.63;10445289;28;20088;-79
2023/09/20 05:51:41;;;;;;;10.02;3.70;;;;;;;-147.65;100.00;57646.63;10422583;28;20467;-80
2023/09/20 05:56:41;;;;;;;9.20;3.25;;;;;;;-147.65;100.00;57646.63;10443710;28;20032;-80
2023/09/20 06:01:42;;;;;;;7.65;2.33;;;;;;;-147.65;100.00;57646.63;10445149;28;20043;-78
2023/09/20 06:06:43;;;;;;;10.15;3.33;;;;;;;-147.65;100.00;57646.63;10469689;28;20086;-79
2023/09/20 06:11:44;;;;;;;4.43;2.40;;;;;;;-147.65;100.00;57646.63;10441934;28;20496;-78
2023/09/20 06:16:44;;;;;;;5.22;2.17;;;;;;;-147.65;100.00;57646.63;10441804;28;20082;-76
2023/09/20 06:21:46;;;;;;;10.40;2.50;;;;;;;-147.65;100.00;57646.63;10442199;28;20461;-77
2023/09/20 06:26:46;;;;;;;8.25;1.92;;;;;;;-147.65;100.00;57646.63;10443127;28;20033;-76
2023/09/20 06:31:47;;;;;;;5.78;2.30;;;;;;;-147.65;100.00;57646.63;10439644;28;20119;-79
2023/09/20 06:36:47;;;;;;;4.35;2.17;;;;;;;-147.65;100.00;57646.63;10442031;28;20049;-78
2023/09/20 06:41:49;;;;;;;5.55;2.13;;;;;;;-147.65;100.00;57646.63;10440645;28;20045;-78
2023/09/20 06:46:49;;;;;;;3.07;1.80;;;;;;;-147.65;100.00;57646.63;10475912;28;20025;-78
2023/09/20 06:51:50;;;;;;;7.53;1.67;;;;;;;-147.65;100.00;57646.63;10465054;28;20112;-79
2023/09/20 06:56:50;;;;;;;6.03;1.93;;;;;;;-147.65;100.00;57646.63;10460226;28;20503;-79
2023/09/20 07:01:53;;;;;;;3.90;1.73;;;;;;;-147.65;100.00;57646.63;10511082;28;20115;-78
2023/09/20 07:06:54;;;;;;;4.32;1.75;;;;;;;-147.65;100.00;57646.63;10454508;28;20381;-78
2023/09/20 07:11:55;;;;;;;7.70;2.83;;;;;;;-147.65;100.00;57646.63;10505426;28;20036;-78
2023/09/20 07:16:55;;;;;;;5.03;2.70;;;;;;;-147.65;100.00;57646.63;10478074;28;20272;-79
2023/09/20 07:21:56;;;;;;;5.20;1.57;;;;;;;-147.65;100.00;57646.63;10486424;28;20119;-79
2023/09/20 07:26:58;;;;;;;2.73;1.50;;;;;;;-147.65;100.00;57646.63;10449014;28;20609;-78
2023/09/20 07:32:00;;;;;;;4.28;2.13;;;;;;;-147.65;100.00;57646.63;10449784;28;20040;-78
2023/09/20 07:37:00;;;;;;;6.13;2.05;;;;;;;-147.65;100.00;57646.63;10446887;28;20120;-78
2023/09/20 07:42:01;;;;;;;2.87;1.67;;;;;;;-147.65;100.00;57646.63;10466650;28;20507;-78
2023/09/20 07:47:03;;;;;;;3.93;2.17;;;;;;;-147.65;100.00;57646.63;10475247;28;20041;-78
2023/09/20 07:52:06;;;;;;;4.25;1.77;;;;;;;-147.65;100.00;57646.63;10489504;28;20036;-78
2023/09/20 07:57:06;;;;;;;4.97;2.15;;;;;;;-147.65;100.00;57646.63;10488020;28;20036;-77
2023/09/20 08:02:09;;;;;;;4.63;2.57;;;;;;;-147.65;100.00;57646.63;10504320;28;20124;-78
2023/09/20 08:07:10;;;;;;;5.88;1.98;;;;;;;-147.65;100.00;57646.63;10488734;28;20044;-78
2023/09/20 08:12:11;;;;;;;5.30;2.50;;;;;;;-147.65;100.00;57646.63;10453769;28;20041;-78
2023/09/20 08:59:49;;;;;;;4.78;1.70;;;;;;;-147.65;100.00;57646.63;10465006;28;20538;-77
2023/09/20 09:04:53;;;;;;;4.95;1.60;;;;;;;-147.65;100.00;57646.63;10453164;28;20037;-76
2023/09/20 09:09:54;;;;;;;7.35;2.10;;;;;;;-147.65;100.00;57646.63;10471363;28;20043;-76
2023/09/20 09:14:54;;;;;;;3.33;1.40;;;;;;;-147.65;100.00;57646.63;10467504;28;20033;-75
2023/09/20 09:19:57;;;;;;;4.80;1.47;;;;;;;-147.65;100.00;57646.63;10442444;28;20045;-75
2023/09/20 09:24:58;;;;;;;2.67;1.30;;;;;;;-147.65;100.00;57646.63;10443073;28;20048;-76
2023/09/20 09:29:58;;;;;;;5.03;1.73;;;;;;;-147.65;100.00;57646.63;10444802;28;20409;-76
2023/09/20 09:35:03;;;;;;;3.40;1.77;;;;;;;-147.65;100.00;57646.63;10424451;28;20025;-77
2023/09/20 09:40:05;;;;;;;2.53;1.08;;;;;;;-147.65;100.00;57646.63;10433591;28;20052;-74
2023/09/20 09:45:06;;;;;;;3.03;1.63;;;;;;;-147.65;100.00;57646.63;10443227;28;20098;-77
2023/09/20 09:50:07;;;;;;;4.15;1.92;;;;;;;-147.65;100.00;57646.63;10441015;28;20041;-77
2023/09/20 09:55:07;;;;;;;2.07;1.10;;;;;;;-147.65;100.00;57646.63;10403883;28;20041;-77
2023/09/20 10:00:10;;;;;;;4.30;0.97;;;;;;;-147.65;100.00;57646.63;10400479;28;20607;-76
2023/09/20 10:05:12;;;;;;;4.60;2.65;;;;;;;-147.65;100.00;57646.63;10442020;28;20033;-76
2023/09/20 10:10:13;;;;;;;14.90;2.45;;;;;;;-147.65;100.00;57646.63;10460592;28;20052;-76
2023/09/20 10:15:14;;;;;;;4.93;1.93;;;;;;;-147.65;100.00;57646.63;10457678;28;20140;-78
2023/09/20 10:20:16;;;;;;;2.03;0.80;;;;;;;-147.65;100.00;57646.63;10481719;28;20032;-80
2023/09/20 10:25:29;;;;;;;4.13;0.77;;;;;;;-147.65;100.00;57646.63;10491826;28;20041;-79
2023/09/20 10:30:34;;;;;;;4.13;1.40;;;;;;;-147.65;100.00;57646.63;10476854;28;20032;-78
2023/09/20 10:35:36;;;;;;;7.10;0.90;;;;;;;-147.65;100.00;57646.63;10482361;28;20530;-78
2023/09/20 10:40:47;;;;;;;6.50;1.48;;;;;;;-147.65;100.00;57646.63;10484515;28;20037;-77
2023/09/20 10:45:51;;;;;;;3.85;1.98;;;;;;;-147.65;100.00;57646.63;10482847;28;20040;-77
2023/09/20 10:50:59;;;;;;;1.58;0.93;;;;;;;-147.65;100.00;57646.63;10481178;28;20043;-78
2023/09/20 10:55:59;;;;;;;3.83;1.20;;;;;;;-147.65;100.00;57646.63;10464773;28;20029;-78
2023/09/20 11:01:03;;;;;;;1.73;1.03;;;;;;;-147.65;100.00;57646.63;10482269;28;20496;-79
2023/09/20 11:06:04;;;;;;;5.50;2.20;;;;;;;-147.65;100.00;57646.63;10464590;28;20047;-77
2023/09/20 11:11:06;;;;;;;3.17;1.00;;;;;;;-147.65;100.00;57646.63;10480854;28;20037;-79
2023/09/20 11:16:08;;;;;;;2.45;1.27;;;;;;;-147.65;100.00;57646.63;10481271;28;20134;-78
2023/09/20 11:21:09;;;;;;;3.28;0.93;;;;;;;-147.65;100.00;57646.63;10480454;28;20037;-78
2023/09/20 11:26:09;;;;;;;3.13;1.60;;;;;;;-147.65;100.00;57646.63;10480334;28;20072;-79
2023/09/20 11:31:29;;;;;;;3.07;0.93;;;;;;;-147.65;100.00;57646.63;10482127;28;20041;-78
2023/09/20 11:36:35;;;;;;;3.30;2.03;;;;;;;-147.65;100.00;57646.63;10488459;28;20036;-77
2023/09/20 11:41:37;;;;;;;2.28;1.40;;;;;;;-147.65;100.00;57646.63;10489352;28;20477;-78
2023/09/20 11:46:38;;;;;;;2.58;1.20;;;;;;;-147.65;100.00;57646.63;10487934;28;20028;-78
2023/09/20 11:51:39;;;;;;;5.83;1.17;;;;;;;-147.65;100.00;57646.63;10466453;28;20048;-78
2023/09/20 11:56:39;;;;;;;3.53;1.63;;;;;;;-147.65;100.00;57646.63;10451575;28;20043;-78
2023/09/20 12:01:40;;;;;;;4.20;1.27;;;;;;;-147.65;100.00;57646.63;10460219;28;20049;-79
2023/09/20 12:06:41;;;;;;;2.58;1.20;;;;;;;-147.65;100.00;57646.63;10388314;28;20083;-80
2023/09/20 12:11:43;;;;;;;3.33;1.20;;;;;;;-147.65;100.00;57646.63;10405692;28;20218;-81
2023/09/20 12:16:47;;;;;;;4.80;1.83;;;;;;;-147.65;100.00;57646.63;10417327;28;20037;-81
2023/09/20 12:21:49;;;;;;;3.70;1.45;;;;;;;-147.65;100.00;57646.63;10445575;28;20398;-84
2023/09/20 12:26:49;;;;;;;3.28;0.90;;;;;;;-147.65;100.00;57646.63;10418462;28;20470;-82
2023/09/20 12:31:52;;;;;;;3.10;0.90;;;;;;;-147.65;100.00;57646.63;10460548;28;20047;-84
2023/09/20 12:36:53;;;;;;;4.70;1.80;;;;;;;-147.65;100.00;57646.63;10485511;28;20127;-82
2023/09/20 12:41:54;;;;;;;4.70;2.22;;;;;;;-147.65;100.00;57646.63;10482605;28;20037;-81
2023/09/20 12:46:54;;;;;;;3.63;1.80;;;;;;;-147.65;100.00;57646.63;10486559;28;20372;-82
2023/09/20 12:51:55;;;;;;;4.03;1.30;;;;;;;-147.65;100.00;57646.63;10467815;28;20033;-79
2023/09/20 12:56:55;;;;;;;3.10;1.17;;;;;;;-147.65;100.00;57646.63;10476240;28;20044;-81
2023/09/20 13:02:00;;;;;;;2.43;1.03;;;;;;;-147.65;100.00;57646.63;10457128;28;20100;-80
2023/09/20 13:07:00;;;;;;;8.85;1.50;;;;;;;-147.65;100.00;57646.63;10386261;28;20049;-79
2023/09/20 13:12:01;;;;;;;6.87;1.70;;;;;;;-147.65;100.00;57646.63;10429387;28;20124;-81
2023/09/20 13:17:02;;;;;;;3.15;1.27;;;;;;;-147.65;100.00;57646.63;10388372;28;20033;-81
2023/09/20 13:22:04;;;;;;;2.27;0.90;;;;;;;-147.65;100.00;57646.63;10462564;28;20637;-80
2023/09/20 13:27:05;;;;;;;2.83;1.02;;;;;;;-147.65;100.00;57646.63;10441614;28;20041;-79
2023/09/20 13:32:08;;;;;;;3.00;1.38;;;;;;;-147.65;100.00;57646.63;10399866;28;20051;-78
2023/09/20 13:37:09;;;;;;;;;;;;;;;-147.65;100.00;57646.63;10470303;28;20447;-76
2023/09/20 13:42:14;;;;;;;2.75;1.15;;;;;;;-147.65;100.00;57646.63;10439312;28;19924;-77
2023/09/20 13:47:16;;;;;;;5.28;1.67;;;;;;;-147.65;100.00;57646.63;10390895;28;20527;-76
2023/09/20 13:52:16;;;;;;;;;;;;;;;-147.65;100.00;57646.63;10422038;28;20038;-77
2023/09/20 13:57:17;;;;;;;6.72;2.03;;;;;;;-147.65;100.00;57646.63;10433732;28;19924;-76
2023/09/20 14:02:17;;;;;;;5.00;1.73;;;;;;;-147.65;100.00;57646.63;10456248;28;20106;-76
2023/09/20 14:07:18;;;;;;;4.40;1.20;;;;;;;-147.65;100.00;57646.63;10421644;28;20544;-76
2023/09/20 14:12:18;;;;;;;8.17;1.97;;;;;;;-147.65;100.00;57646.63;10425868;28;20045;-81
2023/09/20 14:17:19;;;;;;;3.03;1.43;;;;;;;-147.65;100.00;57646.63;10400459;28;20065;-78
2023/09/20 14:22:19;;;;;;;9.27;2.07;;;;;;;-147.65;100.00;57646.63;10419827;28;20131;-78
2023/09/20 14:27:20;;;;;;;4.33;1.63;;;;;;;-147.65;100.00;57646.63;10446677;28;20441;-80
2023/09/20 14:32:20;;;;;;;2.73;1.30;;;;;;;-147.65;100.00;57646.63;10456274;28;20044;-78
2023/09/20 14:37:21;;;;;;;4.40;1.50;;;;;;;-147.65;100.00;57646.63;10449681;28;20537;-77
2023/09/20 14:42:25;;;;;;;3.13;1.77;;;;;;;-147.65;100.00;57646.63;10429254;28;20052;-77
2023/09/20 14:47:27;;;;;;;3.88;1.77;;;;;;;-147.65;100.00;57646.63;10398955;28;20493;-78
2023/09/20 14:52:28;;;;;;;6.28;1.38;;;;;;;-147.65;100.00;57646.63;10440972;28;20438;-78
2023/09/20 14:57:28;;;;;;;4.87;1.77;;;;;;;-147.65;100.00;57646.63;10423152;28;20091;-80
2023/09/20 15:02:29;;;;;;;5.80;2.53;;;;;;;-147.65;100.00;57646.63;10441569;28;20037;-77
2023/09/20 15:07:30;;;;;;;5.33;1.60;;;;;;;-147.65;100.00;57646.63;10497184;28;20119;-79
2023/09/20 15:12:30;;;;;;;2.83;1.60;;;;;;;-147.65;100.00;57646.63;10465552;28;20115;-77
2023/09/20 15:17:31;;;;;;;4.90;1.90;;;;;;;-147.65;100.00;57646.63;10450744;28;20139;-77
2023/09/20 15:22:33;;;;;;;5.55;2.05;;;;;;;-147.65;100.00;57646.63;10451168;28;20503;-78
2023/09/20 15:27:34;;;;;;;4.50;2.35;;;;;;;-147.65;100.00;57646.63;10477883;28;20435;-78
2023/09/20 15:32:34;;;;;;;4.90;2.35;;;;;;;-147.65;100.00;57646.63;10456934;28;20485;-80
2023/09/20 15:37:40;;;;;;;5.47;1.80;;;;;;;-147.65;100.00;57646.63;10461778;28;20127;-80
2023/09/20 15:42:46;;;;;;;5.50;2.63;;;;;;;-147.65;100.00;57646.63;10473259;28;20032;-80
2023/09/20 15:47:47;;;;;;;6.40;2.05;;;;;;;-147.65;100.00;57646.63;10443449;28;20033;-80
2023/09/20 15:52:48;;;;;;;5.10;1.47;;;;;;;-147.65;100.00;57646.63;10408751;28;20135;-86
2023/09/20 15:57:49;;;;;;;6.18;2.70;;;;;;;-147.65;100.00;57646.63;10425512;28;20039;-79
2023/09/20 16:02:50;;;;;;;5.10;2.23;;;;;;;-147.65;100.00;57646.63;10488177;28;20036;-80
2023/09/20 16:07:50;;;;;;;5.00;2.47;;;;;;;-147.65;100.00;57646.63;10447920;28;20350;-80
2023/09/20 16:12:53;;;;;;;4.13;1.60;;;;;;;-147.65;100.00;57646.63;10406206;28;20037;-80
2023/09/20 16:17:54;;;;;;;2.28;1.55;;;;;;;-147.65;100.00;57646.63;10409886;28;20538;-79
2023/09/20 16:22:55;;;;;;;3.47;1.63;;;;;;;-147.65;100.00;57646.63;10479039;28;20123;-78
2023/09/20 16:27:55;;;;;;;8.27;2.38;;;;;;;-147.65;100.00;57646.63;10489958;28;20120;-79
2023/09/20 16:32:56;;;;;;;5.97;1.73;;;;;;;-147.65;100.00;57646.63;10499403;28;20052;-80
2023/09/20 16:37:56;;;;;;;2.70;1.52;;;;;;;-147.65;100.00;57646.63;10405227;28;20144;-80
2023/09/20 16:42:57;;;;;;;2.80;1.23;;;;;;;-147.65;100.00;57646.63;10431982;28;26044;-78
2023/09/20 16:47:57;;;;;;;17.40;4.63;;;;;;;-147.65;100.00;57646.63;10473333;28;20059;-78
2023/09/20 16:52:58;;;;;;;5.97;3.33;;;;;;;-147.65;100.00;57646.63;10428770;28;20036;-78
2023/09/20 16:57:58;;;;;;;8.48;3.40;;;;;;;-147.65;100.00;57646.63;10454702;28;20090;-78
2023/09/20 17:02:59;;;;;;;3.45;1.73;;;;;;;-147.65;100.00;57646.63;10463429;28;20044;-78
2023/09/20 17:08:00;;;;;;;8.23;3.72;;;;;;;-147.65;100.00;57646.63;10444759;28;20041;-78
2023/09/20 17:13:00;;;;;;;4.53;2.00;;;;;;;-147.65;100.00;57646.63;10442764;28;20121;-78
2023/09/20 17:18:02;;;;;;;4.07;1.90;;;;;;;-147.65;100.00;57646.63;10424533;28;20044;-77
2023/09/20 17:23:02;;;;;;;10.02;3.13;;;;;;;-147.65;100.00;57646.63;10475063;28;20040;-77
2023/09/20 17:28:03;;;;;;;8.10;2.50;;;;;;;-147.65;100.00;57646.63;10465459;28;20099;-77
2023/09/20 17:33:04;;;;;;;6.70;2.67;;;;;;;-147.65;100.00;57646.63;10442767;28;20171;-77
2023/09/20 17:38:06;;;;;;;4.28;1.90;;;;;;;-147.65;100.00;57646.63;10447451;28;20037;-78
2023/09/20 17:43:07;;;;;;;8.65;2.22;;;;;;;-147.65;100.00;57646.63;10464609;28;20075;-77
2023/09/20 17:48:08;;;;;;;11.18;2.33;;;;;;;-147.65;100.00;57646.63;10476125;28;20540;-78
2023/09/20 17:53:10;;;;;;;5.70;2.33;;;;;;;-147.65;100.00;57646.63;10481640;28;20048;-78
2023/09/20 17:58:12;;;;;;;6.18;2.28;;;;;;;-147.65;100.00;57646.63;10427919;28;20037;-77
2023/09/20 18:03:12;;;;;;;6.60;2.20;;;;;;;-147.65;100.00;57646.63;10405031;28;20048;-77
2023/09/20 18:08:15;;;;;;;5.32;2.15;;;;;;;-147.65;100.00;57646.63;10459930;28;20166;-78
2023/09/20 18:13:15;;;;;;;10.60;4.32;;;;;;;-147.65;100.00;57646.63;10439522;28;20033;-78
2023/09/20 18:18:16;;;;;;;5.60;2.35;;;;;;;-147.65;100.00;57646.63;10442613;28;20124;-77
2023/09/20 18:23:17;;;;;;;8.95;4.13;;;;;;;-147.65;100.00;57646.63;10440461;28;20056;-77
2023/09/20 18:28:19;;;;;;;8.50;1.98;;;;;;;-147.65;100.00;57646.63;10421214;28;20488;-78
2023/09/20 18:33:20;;;;;;;10.18;3.08;;;;;;;-147.65;100.00;57646.63;10448668;28;20124;-77
2023/09/20 18:38:21;;;;;;;5.73;2.03;;;;;;;-147.65;100.00;57646.63;10443277;28;20048;-77
2023/09/20 18:43:22;;;;;;;8.82;1.98;;;;;;;-147.65;100.00;57646.63;10454381;28;20048;-77
2023/09/20 18:48:24;;;;;;;2.58;1.45;;;;;;;-147.65;100.00;57646.63;10479135;28;20056;-77
2023/09/20 18:53:25;;;;;;;9.07;2.17;;;;;;;-147.65;100.00;57646.63;10469534;28;20477;-76
2023/09/20 18:58:26;;;;;;;4.05;2.47;;;;;;;-147.65;100.00;57646.63;10356729;28;1186166;-78
2023/09/20 19:03:28;;;;;;;7.47;2.70;;;;;;;-147.65;100.00;57646.63;10446178;28;20048;-79
2023/09/20 19:08:28;;;;;;;7.35;2.55;;;;;;;-147.65;100.00;57646.63;10458538;28;20593;-79
2023/09/20 19:13:29;;;;;;;3.80;2.28;;;;;;;-147.65;100.00;57646.63;10461642;28;20036;-78
2023/09/20 19:18:29;;;;;;;6.30;2.40;;;;;;;-147.65;100.00;57646.63;10445850;28;20420;-78
2023/09/20 19:23:30;;;;;;;8.52;2.47;;;;;;;-147.65;100.00;57646.63;10435207;28;20128;-79
2023/09/20 19:28:30;;;;;;;3.90;1.52;;;;;;;-147.65;100.00;57646.63;10461398;28;20041;-78
2023/09/20 19:33:31;;;;;;;6.57;3.15;;;;;;;-147.65;100.00;57646.63;10446388;28;20041;-78
2023/09/20 19:38:31;;;;;;;6.30;2.15;;;;;;;-147.65;100.00;57646.63;10439333;28;20386;-78
2023/09/20 19:43:33;;;;;;;5.97;1.80;;;;;;;-147.65;100.00;57646.63;10430877;28;20106;-78
2023/09/20 19:48:33;;;;;;;6.00;1.97;;;;;;;-147.65;100.00;57646.63;10408363;28;20034;-78
2023/09/20 19:53:34;;;;;;;8.75;1.98;;;;;;;-147.65;100.00;57646.63;10440781;28;20298;-78
2023/09/20 19:58:34;;;;;;;5.15;1.42;;;;;;;-147.65;100.00;57646.63;10446656;28;20108;-78
2023/09/20 20:03:35;;;;;;;6.18;1.98;;;;;;;-147.65;100.00;57646.63;10448579;28;20476;-79
2023/09/20 20:08:39;;;;;;;3.53;1.60;;;;;;;-147.65;100.00;57646.63;10454154;28;20041;-79
2023/09/20 20:13:40;;;;;;;6.40;3.65;;;;;;;-147.65;100.00;57646.63;10488141;28;20119;-79
2023/09/20 20:18:44;;;;;;;7.57;2.10;;;;;;;-147.65;100.00;57646.63;10457065;28;20405;-78
2023/09/20 20:23:45;;;;;;;4.35;2.38;;;;;;;-147.65;100.00;57646.63;10426912;28;20041;-78
2023/09/20 20:28:46;;;;;;;7.25;2.92;;;;;;;-147.65;100.00;57646.63;10446985;28;20126;-79
2023/09/20 20:33:47;;;;;;;6.67;2.27;;;;;;;-147.65;100.00;57646.63;10412675;28;20065;-78
2023/09/20 20:38:48;;;;;;;5.75;2.30;;;;;;;-147.65;100.00;57646.63;10438187;28;20033;-78
2023/09/20 20:43:48;;;;;;;7.22;1.75;;;;;;;-147.65;100.00;57646.63;10457422;28;20179;-78
2023/09/20 20:48:50;;;;;;;5.55;2.15;;;;;;;-147.65;100.00;57646.63;10446392;28;20033;-78
2023/09/20 20:53:52;;;;;;;3.58;1.38;;;;;;;-147.65;100.00;57646.63;10437750;28;20120;-78
2023/09/20 20:58:55;;;;;;;4.70;1.98;;;;;;;-147.65;100.00;57646.63;10456052;28;20044;-78
2023/09/20 21:03:57;;;;;;;4.00;2.30;;;;;;;-147.65;100.00;57646.63;10448345;28;20124;-80
2023/09/20 21:08:58;;;;;;;3.35;1.70;;;;;;;-147.65;100.00;57646.63;10442520;28;20061;-78
2023/09/20 21:14:00;;;;;;;5.70;4.03;;;;;;;-147.65;100.00;57646.63;10443032;28;20041;-79
2023/09/20 21:19:00;;;;;;;5.30;2.05;;;;;;;-147.65;100.00;57646.63;10445296;28;20048;-79
2023/09/20 21:24:01;;;;;;;8.88;3.88;;;;;;;-147.65;100.00;57646.63;10428457;28;20045;-79
2023/09/20 21:29:01;;;;;;;4.35;1.88;;;;;;;-147.65;100.00;57646.63;10414905;28;20056;-78
2023/09/20 21:34:03;;;;;;;6.55;1.70;;;;;;;-147.65;100.00;57646.63;10453479;28;20056;-77
2023/09/20 21:39:03;;;;;;;5.50;2.20;;;;;;;-147.65;100.00;57646.63;10434073;28;20034;-77
2023/09/20 21:44:04;;;;;;;3.10;1.85;;;;;;;-147.65;100.00;57646.63;10458209;28;20033;-79
2023/09/20 21:49:05;;;;;;;4.53;1.92;;;;;;;-147.65;100.00;57646.63;10410933;28;20041;-79
2023/09/20 21:54:06;;;;;;;7.25;1.73;;;;;;;-147.65;100.00;57646.63;10427688;28;20563;-79
2023/09/20 21:59:06;;;;;;;3.58;1.70;;;;;;;-147.65;100.00;57646.63;10432699;28;20389;-80
2023/09/20 22:04:07;;;;;;;7.43;2.30;;;;;;;-147.65;100.00;57646.63;10463974;28;20047;-80
2023/09/20 22:09:09;;;;;;;5.05;2.17;;;;;;;-147.65;100.00;57646.63;10451096;28;20151;-80
2023/09/20 22:14:10;;;;;;;6.28;2.13;;;;;;;-147.65;100.00;57646.63;10462433;28;20456;-79
2023/09/20 22:19:14;;;;;;;4.85;2.00;;;;;;;-147.65;100.00;57646.63;10441798;28;20045;-79
2023/09/20 22:24:16;;;;;;;7.38;2.25;;;;;;;-147.65;100.00;57646.63;10422721;28;20098;-80
2023/09/20 22:29:16;;;;;;;3.25;1.40;;;;;;;-147.65;100.00;57646.63;10432262;28;20045;-79
2023/09/20 22:34:17;;;;;;;4.38;2.20;;;;;;;-147.65;100.00;57646.63;10441884;28;20116;-79
2023/09/20 22:39:19;;;;;;;5.35;2.20;;;;;;;-147.65;100.00;57646.63;10424061;28;20103;-79
2023/09/20 22:44:21;;;;;;;8.23;2.40;;;;;;;-147.65;100.00;57646.63;10455458;28;20033;-79
2023/09/20 22:49:22;;;;;;;3.28;1.42;;;;;;;-147.65;100.00;57646.63;10448857;28;20484;-79
2023/09/20 22:54:22;;;;;;;6.03;1.83;;;;;;;-147.65;100.00;57646.63;10440910;28;20033;-79
2023/09/20 22:59:28;;;;;;;5.03;1.67;;;;;;;-147.65;100.00;57646.63;10441371;28;20116;-79
2023/09/20 23:04:31;;;;;;;6.50;1.90;;;;;;;-147.65;100.00;57646.63;10421898;28;20037;-79
2023/09/20 23:09:36;;;;;;;7.85;2.22;;;;;;;-147.65;100.00;57646.63;10415699;28;20045;-79
2023/09/20 23:14:37;;;;;;;4.05;1.70;;;;;;;-147.65;100.00;57646.63;10419318;28;20040;-79
2023/09/20 23:19:38;;;;;;;6.68;2.45;;;;;;;-147.65;100.00;57646.63;10415951;28;20101;-79